Arrowhead, Minnesota
Current Conditions -  °F | °C
As of 3:36 AM on Thursday 23 Oct 2014 (Local Time) from KCOQ Reporting Station
Overcast Overcast  
Wind Chill: 52°   Ceiling: 2300
Heat Index: 52°   Visibility: 10mi
Dew Point: 39°   Wind: 6mph
Humidity: 62%   Direction: 180°S
Pressure: 29.97"   Gusts: NA
Location:  46.8211°N, 92.6871°W
Report Text: KCOQ 230836Z AUTO 18005KT 10SM OVC023 11/04 A2997 RMK AO2
Loading
Personal Weather Stations






























Interactive Weather Map New forecast layout! Learn more

10-Day Weather Forecast

Advertisements
Track Severe Weather on mobile